Time,TemperatureF,DewpointF,PressureIn,WindDirection,WindDirectionDegrees,WindSpeedMPH,WindSpeedGustMPH,Humidity,HourlyPrecipIn,Conditions,Clouds,dailyrainin,SoftwareType,DateUTC
2013-04-22 07:35:00,41.8,34.5,30.67,NNE,32,7.0,7.0,75,0.00,,,0.00,Wunderground v.1.15,2013-04-22 11:35:00,
2013-04-22 07:40:00,42.1,34.1,30.68,NE,39,8.0,9.0,73,0.00,,,0.00,Wunderground v.1.15,2013-04-22 11:40:00,
2013-04-22 07:50:00,42.9,33.8,30.68,NE,39,7.0,8.0,70,0.00,,,0.00,Wunderground v.1.15,2013-04-22 11:50:00,
2013-04-22 07:55:00,43.2,34.1,30.68,NE,53,7.0,9.0,70,0.00,,,0.00,Wunderground v.1.15,2013-04-22 11:55:00,
2013-04-22 08:00:00,43.3,33.8,30.68,NE,40,7.0,7.0,69,0.00,,,0.00,Wunderground v.1.15,2013-04-22 12:00:00,
2013-04-22 08:05:00,43.5,33.6,30.67,NE,39,8.0,8.0,68,0.00,,,0.00,Wunderground v.1.15,2013-04-22 12:05:00,
2013-04-22 08:10:00,43.7,33.1,30.67,NNE,20,8.0,9.0,66,0.00,,,0.00,Wunderground v.1.15,2013-04-22 12:10:00,
2013-04-22 08:15:00,44.0,34.1,30.67,NE,50,8.0,9.0,68,0.00,,,0.00,Wunderground v.1.15,2013-04-22 12:15:00,
2013-04-22 08:20:00,44.4,34.1,30.67,ENE,67,8.0,10.0,67,0.00,,,0.00,Wunderground v.1.15,2013-04-22 12:20:00,
2013-04-22 08:25:00,44.2,33.2,30.67,NW,314,9.0,10.0,65,0.00,,,0.00,Wunderground v.1.15,2013-04-22 12:25:00,
2013-04-22 08:30:00,44.8,33.7,30.67,ENE,72,9.0,12.0,65,0.00,,,0.00,Wunderground v.1.15,2013-04-22 12:30:00,
2013-04-22 08:35:00,45.0,33.5,30.67,NE,51,8.0,12.0,64,0.00,,,0.00,Wunderground v.1.15,2013-04-22 12:35:00,
2013-04-22 08:40:00,45.3,33.8,30.67,NE,37,8.0,8.0,64,0.00,,,0.00,Wunderground v.1.15,2013-04-22 12:40:00,
2013-04-22 08:45:00,45.1,33.2,30.67,NNE,18,9.0,13.0,63,0.00,,,0.00,Wunderground v.1.15,2013-04-22 12:45:00,
2013-04-22 08:50:00,45.4,32.7,30.67,East,94,10.0,10.0,61,0.00,,,0.00,Wunderground v.1.15,2013-04-22 12:50:00,
2013-04-22 08:55:00,45.6,32.9,30.67,NNE,21,11.0,11.0,61,0.00,,,0.00,Wunderground v.1.15,2013-04-22 12:55:00,
2013-04-22 09:00:00,45.8,33.1,30.67,NE,37,11.0,11.0,61,0.00,,,0.00,Wunderground v.1.15,2013-04-22 13:00:00,
2013-04-22 09:05:00,46.1,33.4,30.68,NE,51,10.0,11.0,61,0.00,,,0.00,Wunderground v.1.15,2013-04-22 13:05:00,
2013-04-22 09:10:00,46.5,33.8,30.69,NNE,27,9.0,9.0,61,0.00,,,0.00,Wunderground v.1.15,2013-04-22 13:10:00,
2013-04-22 09:15:00,47.1,34.3,30.69,ENE,68,8.0,9.0,61,0.00,,,0.00,Wunderground v.1.15,2013-04-22 13:15:00,
2013-04-22 09:20:00,47.4,33.8,30.70,East,85,7.0,9.0,59,0.00,,,0.00,Wunderground v.1.15,2013-04-22 13:20:00,
2013-04-22 09:25:00,47.3,31.0,30.69,East,93,9.0,13.0,53,0.00,,,0.00,Wunderground v.1.15,2013-04-22 13:25:00,
2013-04-22 09:30:00,47.3,31.5,30.69,NE,51,12.0,12.0,54,0.00,,,0.00,Wunderground v.1.15,2013-04-22 13:30:00,
2013-04-22 09:35:00,47.4,30.6,30.69,ENE,75,12.0,14.0,52,0.00,,,0.00,Wunderground v.1.15,2013-04-22 13:35:00,
2013-04-22 09:40:00,47.5,31.2,30.68,East,98,12.0,17.0,53,0.00,,,0.00,Wunderground v.1.15,2013-04-22 13:40:00,
2013-04-22 09:45:00,47.4,29.7,30.69,ENE,67,13.0,18.0,50,0.00,,,0.00,Wunderground v.1.15,2013-04-22 13:45:00,
2013-04-22 09:50:00,47.6,30.8,30.69,NNE,30,14.0,14.0,52,0.00,,,0.00,Wunderground v.1.15,2013-04-22 13:50:00,
2013-04-22 09:55:00,47.7,31.4,30.68,SE,141,13.0,14.0,53,0.00,,,0.00,Wunderground v.1.15,2013-04-22 13:55:00,
2013-04-22 10:05:00,47.7,33.6,30.68,ENE,57,13.0,17.0,58,0.00,,,0.00,Wunderground v.1.15,2013-04-22 14:05:00,